sensor_id;sensor_type;location;lat;lon;timestamp;pressure;altitude;pressure_sealevel;temperature;humidity
77077;BME280;66003;52.286;104.306;2023-02-26T00:01:18;96690.47;;;-3.96;45.11
77077;BME280;66003;52.286;104.306;2023-02-26T00:03:53;96688.31;;;-3.93;44.80
77077;BME280;66003;52.286;104.306;2023-02-26T00:06:19;96712.44;;;-3.76;44.38
77077;BME280;66003;52.286;104.306;2023-02-26T00:08:45;96709.81;;;-3.76;44.60
77077;BME280;66003;52.286;104.306;2023-02-26T00:11:12;96704.06;;;-3.72;44.58
77077;BME280;66003;52.286;104.306;2023-02-26T00:13:39;96674.81;;;-3.82;44.68
77077;BME280;66003;52.286;104.306;2023-02-26T00:16:28;96725.38;;;-3.39;44.32
77077;BME280;66003;52.286;104.306;2023-02-26T00:18:56;96728.25;;;-3.19;43.76
77077;BME280;66003;52.286;104.306;2023-02-26T00:21:24;96715.19;;;-3.19;43.67
77077;BME280;66003;52.286;104.306;2023-02-26T00:23:51;96716.03;;;-2.97;42.99
77077;BME280;66003;52.286;104.306;2023-02-26T00:26:17;96716.34;;;-2.85;42.67
77077;BME280;66003;52.286;104.306;2023-02-26T00:28:44;96736.97;;;-2.55;42.60
77077;BME280;66003;52.286;104.306;2023-02-26T00:31:10;96744.25;;;-2.29;42.22
77077;BME280;66003;52.286;104.306;2023-02-26T00:33:37;96722.66;;;-2.09;41.83
77077;BME280;66003;52.286;104.306;2023-02-26T00:36:18;96732.22;;;-1.67;41.04
77077;BME280;66003;52.286;104.306;2023-02-26T00:38:55;96718.50;;;-1.35;40.02
77077;BME280;66003;52.286;104.306;2023-02-26T00:41:24;96716.47;;;-0.85;38.60
77077;BME280;66003;52.286;104.306;2023-02-26T00:43:50;96715.94;;;-0.41;37.87
77077;BME280;66003;52.286;104.306;2023-02-26T00:46:27;96759.97;;;0.29;37.61
77077;BME280;66003;52.286;104.306;2023-02-26T00:49:17;96757.25;;;0.82;36.71
77077;BME280;66003;52.286;104.306;2023-02-26T00:51:51;96762.75;;;1.19;35.12
77077;BME280;66003;52.286;104.306;2023-02-26T00:54:23;96746.00;;;1.06;34.08
77077;BME280;66003;52.286;104.306;2023-02-26T00:56:51;96782.81;;;1.20;34.05
77077;BME280;66003;52.286;104.306;2023-02-26T00:59:18;96746.75;;;1.27;34.02
77077;BME280;66003;52.286;104.306;2023-02-26T01:01:44;96775.88;;;1.70;33.52
77077;BME280;66003;52.286;104.306;2023-02-26T01:04:12;96785.06;;;1.92;33.20
77077;BME280;66003;52.286;104.306;2023-02-26T01:06:48;96810.72;;;2.35;33.13
77077;BME280;66003;52.286;104.306;2023-02-26T01:09:30;96805.22;;;2.79;32.62
77077;BME280;66003;52.286;104.306;2023-02-26T01:12:00;96771.94;;;2.97;31.56
77077;BME280;66003;52.286;104.306;2023-02-26T01:14:29;96806.41;;;3.38;30.98
77077;BME280;66003;52.286;104.306;2023-02-26T01:17:28;96803.06;;;3.61;31.72
77077;BME280;66003;52.286;104.306;2023-02-26T01:20:13;96787.03;;;3.44;30.39
77077;BME280;66003;52.286;104.306;2023-02-26T01:22:56;96818.72;;;3.44;29.54
77077;BME280;66003;52.286;104.306;2023-02-26T01:25:58;96814.25;;;3.45;29.94
77077;BME280;66003;52.286;104.306;2023-02-26T01:28:26;96782.13;;;3.11;30.57
77077;BME280;66003;52.286;104.306;2023-02-26T01:30:56;96803.56;;;3.21;30.35
77077;BME280;66003;52.286;104.306;2023-02-26T01:33:27;96809.28;;;3.00;30.07
77077;BME280;66003;52.286;104.306;2023-02-26T01:36:24;96822.31;;;2.95;30.25
77077;BME280;66003;52.286;104.306;2023-02-26T01:39:05;96820.00;;;3.42;30.15
77077;BME280;66003;52.286;104.306;2023-02-26T01:44:35;96832.72;;;3.63;30.14
77077;BME280;66003;52.286;104.306;2023-02-26T01:49:41;96838.88;;;2.84;30.80
77077;BME280;66003;52.286;104.306;2023-02-26T01:55:12;96830.41;;;2.57;31.24
77077;BME280;66003;52.286;104.306;2023-02-26T01:57:39;96796.44;;;2.42;31.11
77077;BME280;66003;52.286;104.306;2023-02-26T02:00:06;96835.47;;;3.38;30.62
77077;BME280;66003;52.286;104.306;2023-02-26T02:02:32;96830.59;;;4.55;29.13
77077;BME280;66003;52.286;104.306;2023-02-26T02:05:05;96803.03;;;5.77;27.43
77077;BME280;66003;52.286;104.306;2023-02-26T02:07:32;96845.31;;;7.08;26.49
77077;BME280;66003;52.286;104.306;2023-02-26T02:09:58;96846.16;;;7.74;24.91
77077;BME280;66003;52.286;104.306;2023-02-26T02:12:56;96864.38;;;8.57;24.70
77077;BME280;66003;52.286;104.306;2023-02-26T02:18:23;96838.50;;;9.27;23.61
77077;BME280;66003;52.286;104.306;2023-02-26T02:23:54;96859.38;;;9.40;23.80
77077;BME280;66003;52.286;104.306;2023-02-26T02:32:21;96874.13;;;9.11;23.84
77077;BME280;66003;52.286;104.306;2023-02-26T02:35:19;96867.84;;;9.27;23.88
77077;BME280;66003;52.286;104.306;2023-02-26T02:40:27;96841.53;;;9.46;23.35
77077;BME280;66003;52.286;104.306;2023-02-26T02:43:00;96838.47;;;9.74;23.42
77077;BME280;66003;52.286;104.306;2023-02-26T02:48:19;96844.78;;;10.30;22.50
77077;BME280;66003;52.286;104.306;2023-02-26T02:50:50;96837.94;;;9.82;23.23
77077;BME280;66003;52.286;104.306;2023-02-26T02:53:35;96835.41;;;9.03;23.71
77077;BME280;66003;52.286;104.306;2023-02-26T02:56:16;96833.03;;;8.16;25.07
77077;BME280;66003;52.286;104.306;2023-02-26T02:58:49;96830.22;;;7.13;25.40
77077;BME280;66003;52.286;104.306;2023-02-26T03:01:18;96834.91;;;6.73;26.18
77077;BME280;66003;52.286;104.306;2023-02-26T03:04:05;96829.31;;;6.07;27.15
77077;BME280;66003;52.286;104.306;2023-02-26T03:06:33;96844.69;;;5.65;27.63
77077;BME280;66003;52.286;104.306;2023-02-26T03:09:02;96810.25;;;5.54;27.89
77077;BME280;66003;52.286;104.306;2023-02-26T03:11:29;96803.34;;;5.81;27.93
77077;BME280;66003;52.286;104.306;2023-02-26T03:13:56;96818.09;;;6.34;27.65
77077;BME280;66003;52.286;104.306;2023-02-26T03:25:07;96847.25;;;10.57;23.18
77077;BME280;66003;52.286;104.306;2023-02-26T03:35:46;96853.91;;;9.67;24.39
77077;BME280;66003;52.286;104.306;2023-02-26T03:38:34;96866.31;;;9.41;24.71
77077;BME280;66003;52.286;104.306;2023-02-26T03:41:07;96864.75;;;9.03;24.43
77077;BME280;66003;52.286;104.306;2023-02-26T03:43:48;96877.91;;;8.83;25.79
77077;BME280;66003;52.286;104.306;2023-02-26T03:46:21;96839.84;;;8.55;25.17
77077;BME280;66003;52.286;104.306;2023-02-26T03:48:50;96869.38;;;8.86;25.86
77077;BME280;66003;52.286;104.306;2023-02-26T03:51:17;96880.59;;;8.83;25.86
77077;BME280;66003;52.286;104.306;2023-02-26T03:53:58;96890.94;;;8.79;26.23
77077;BME280;66003;52.286;104.306;2023-02-26T03:56:35;96864.88;;;8.54;25.58
77077;BME280;66003;52.286;104.306;2023-02-26T03:59:03;96875.53;;;8.54;25.70
77077;BME280;66003;52.286;104.306;2023-02-26T04:01:38;96870.09;;;8.44;25.85
77077;BME280;66003;52.286;104.306;2023-02-26T04:04:11;96902.47;;;8.58;26.03
77077;BME280;66003;52.286;104.306;2023-02-26T04:06:39;96897.88;;;8.53;26.29
77077;BME280;66003;52.286;104.306;2023-02-26T04:09:07;96891.97;;;8.46;26.13
77077;BME280;66003;52.286;104.306;2023-02-26T04:11:33;96882.78;;;8.32;26.40
77077;BME280;66003;52.286;104.306;2023-02-26T04:14:00;96878.03;;;7.90;27.01
77077;BME280;66003;52.286;104.306;2023-02-26T04:16:26;96874.75;;;7.83;27.13
77077;BME280;66003;52.286;104.306;2023-02-26T04:18:52;96898.53;;;8.17;27.68
77077;BME280;66003;52.286;104.306;2023-02-26T04:21:20;96870.31;;;8.16;26.94
77077;BME280;66003;52.286;104.306;2023-02-26T04:23:47;96868.25;;;8.45;26.62
77077;BME280;66003;52.286;104.306;2023-02-26T04:26:13;96892.53;;;8.80;26.69
77077;BME280;66003;52.286;104.306;2023-02-26T04:28:40;96892.69;;;8.95;26.71
77077;BME280;66003;52.286;104.306;2023-02-26T04:31:07;96901.75;;;9.36;26.57
77077;BME280;66003;52.286;104.306;2023-02-26T04:33:35;96870.00;;;9.35;26.83
77077;BME280;66003;52.286;104.306;2023-02-26T04:36:01;96880.53;;;9.57;26.79
77077;BME280;66003;52.286;104.306;2023-02-26T04:38:27;96889.38;;;9.62;27.01
77077;BME280;66003;52.286;104.306;2023-02-26T04:40:54;96896.28;;;9.53;27.55
77077;BME280;66003;52.286;104.306;2023-02-26T04:43:20;96819.09;;;8.94;27.84
77077;BME280;66003;52.286;104.306;2023-02-26T04:45:47;96898.41;;;9.56;27.74
77077;BME280;66003;52.286;104.306;2023-02-26T04:48:14;96905.91;;;9.59;27.59
77077;BME280;66003;52.286;104.306;2023-02-26T04:50:41;96866.34;;;9.46;27.86
77077;BME280;66003;52.286;104.306;2023-02-26T04:53:07;96907.69;;;9.44;28.21
77077;BME280;66003;52.286;104.306;2023-02-26T04:55:34;96873.22;;;8.95;29.27
77077;BME280;66003;52.286;104.306;2023-02-26T04:58:01;96822.63;;;8.36;29.58
77077;BME280;66003;52.286;104.306;2023-02-26T05:00:27;96905.94;;;8.58;30.13
77077;BME280;66003;52.286;104.306;2023-02-26T05:02:53;96912.13;;;8.37;30.92
77077;BME280;66003;52.286;104.306;2023-02-26T05:05:20;96914.81;;;8.20;31.19
77077;BME280;66003;52.286;104.306;2023-02-26T05:07:46;96924.13;;;7.96;31.15
77077;BME280;66003;52.286;104.306;2023-02-26T05:10:12;96926.19;;;7.50;32.39
77077;BME280;66003;52.286;104.306;2023-02-26T05:12:38;96896.19;;;7.16;33.27
77077;BME280;66003;52.286;104.306;2023-02-26T05:15:07;96921.22;;;7.20;32.85
77077;BME280;66003;52.286;104.306;2023-02-26T05:17:34;96886.78;;;6.92;32.76
77077;BME280;66003;52.286;104.306;2023-02-26T05:20:00;96903.38;;;6.82;33.77
77077;BME280;66003;52.286;104.306;2023-02-26T05:22:26;96903.91;;;6.84;33.39
77077;BME280;66003;52.286;104.306;2023-02-26T05:24:52;96914.78;;;7.00;33.51
77077;BME280;66003;52.286;104.306;2023-02-26T05:27:18;96907.84;;;6.99;33.80
77077;BME280;66003;52.286;104.306;2023-02-26T05:29:45;96913.81;;;7.06;34.08
77077;BME280;66003;52.286;104.306;2023-02-26T05:32:11;96892.00;;;7.04;33.54
77077;BME280;66003;52.286;104.306;2023-02-26T05:34:37;96887.81;;;7.08;33.52
77077;BME280;66003;52.286;104.306;2023-02-26T05:37:03;96912.53;;;7.25;33.61
77077;BME280;66003;52.286;104.306;2023-02-26T05:39:29;96917.88;;;7.47;33.73
77077;BME280;66003;52.286;104.306;2023-02-26T05:41:55;96907.19;;;7.42;33.22
77077;BME280;66003;52.286;104.306;2023-02-26T05:44:22;96890.53;;;7.30;33.61
77077;BME280;66003;52.286;104.306;2023-02-26T05:46:48;96925.34;;;7.67;33.47
77077;BME280;66003;52.286;104.306;2023-02-26T05:49:14;96919.06;;;7.56;33.35
77077;BME280;66003;52.286;104.306;2023-02-26T05:51:41;96930.16;;;7.70;33.26
77077;BME280;66003;52.286;104.306;2023-02-26T05:54:10;96942.97;;;7.73;33.38
77077;BME280;66003;52.286;104.306;2023-02-26T05:56:36;96936.03;;;7.72;33.64
77077;BME280;66003;52.286;104.306;2023-02-26T05:59:03;96923.56;;;7.72;34.03
77077;BME280;66003;52.286;104.306;2023-02-26T06:01:29;96911.97;;;7.61;34.09
77077;BME280;66003;52.286;104.306;2023-02-26T06:03:55;96943.69;;;7.85;34.32
77077;BME280;66003;52.286;104.306;2023-02-26T06:06:21;96916.13;;;7.74;34.35
77077;BME280;66003;52.286;104.306;2023-02-26T06:08:48;96936.41;;;7.80;34.43
77077;BME280;66003;52.286;104.306;2023-02-26T06:11:14;96925.47;;;7.77;34.87
77077;BME280;66003;52.286;104.306;2023-02-26T06:13:40;96947.13;;;7.64;35.49
77077;BME280;66003;52.286;104.306;2023-02-26T06:16:06;96936.69;;;7.40;36.37
77077;BME280;66003;52.286;104.306;2023-02-26T06:18:32;96924.19;;;7.24;36.36
77077;BME280;66003;52.286;104.306;2023-02-26T06:20:59;96946.69;;;7.16;36.75
77077;BME280;66003;52.286;104.306;2023-02-26T06:23:26;96935.06;;;6.72;37.69
77077;BME280;66003;52.286;104.306;2023-02-26T06:25:52;96928.38;;;6.41;39.05
77077;BME280;66003;52.286;104.306;2023-02-26T06:28:19;96928.81;;;6.22;38.63
77077;BME280;66003;52.286;104.306;2023-02-26T06:30:46;96962.66;;;6.03;40.03
77077;BME280;66003;52.286;104.306;2023-02-26T06:33:12;96974.09;;;5.92;40.44
77077;BME280;66003;52.286;104.306;2023-02-26T06:35:38;96975.25;;;5.72;39.81
77077;BME280;66003;52.286;104.306;2023-02-26T06:38:04;96978.28;;;5.53;41.26
77077;BME280;66003;52.286;104.306;2023-02-26T06:40:31;96965.59;;;5.31;41.97
77077;BME280;66003;52.286;104.306;2023-02-26T06:42:57;96977.13;;;5.25;42.48
77077;BME280;66003;52.286;104.306;2023-02-26T06:45:23;97009.72;;;5.26;43.92
77077;BME280;66003;52.286;104.306;2023-02-26T06:47:50;96983.06;;;4.97;42.64
77077;BME280;66003;52.286;104.306;2023-02-26T06:50:16;97014.59;;;4.99;44.42
77077;BME280;66003;52.286;104.306;2023-02-26T06:52:43;96993.44;;;4.57;46.04
77077;BME280;66003;52.286;104.306;2023-02-26T06:55:09;97000.78;;;4.55;46.95
77077;BME280;66003;52.286;104.306;2023-02-26T06:57:36;97029.44;;;4.58;47.29
77077;BME280;66003;52.286;104.306;2023-02-26T07:00:04;97003.91;;;4.16;47.89
77077;BME280;66003;52.286;104.306;2023-02-26T07:02:31;97031.25;;;4.28;48.61
77077;BME280;66003;52.286;104.306;2023-02-26T07:04:57;97052.13;;;4.36;49.17
77077;BME280;66003;52.286;104.306;2023-02-26T07:07:23;97042.84;;;4.27;48.22
77077;BME280;66003;52.286;104.306;2023-02-26T07:09:49;97049.69;;;4.16;48.73
77077;BME280;66003;52.286;104.306;2023-02-26T07:12:15;97047.03;;;4.16;48.26
77077;BME280;66003;52.286;104.306;2023-02-26T07:14:42;97048.81;;;4.22;50.31
77077;BME280;66003;52.286;104.306;2023-02-26T07:17:09;97072.59;;;4.41;49.67
77077;BME280;66003;52.286;104.306;2023-02-26T07:19:35;97064.16;;;4.50;49.19
77077;BME280;66003;52.286;104.306;2023-02-26T07:22:02;97068.13;;;4.59;49.26
77077;BME280;66003;52.286;104.306;2023-02-26T07:24:29;97064.88;;;4.57;48.84
77077;BME280;66003;52.286;104.306;2023-02-26T07:26:55;97073.34;;;4.48;49.93
77077;BME280;66003;52.286;104.306;2023-02-26T07:29:21;97076.72;;;4.55;51.37
77077;BME280;66003;52.286;104.306;2023-02-26T07:31:47;97031.63;;;4.31;50.58
77077;BME280;66003;52.286;104.306;2023-02-26T07:34:13;97047.34;;;4.26;49.45
77077;BME280;66003;52.286;104.306;2023-02-26T07:36:39;97046.22;;;4.16;53.23
77077;BME280;66003;52.286;104.306;2023-02-26T07:39:06;97037.72;;;4.14;52.23
77077;BME280;66003;52.286;104.306;2023-02-26T07:41:34;97061.91;;;4.35;52.28
77077;BME280;66003;52.286;104.306;2023-02-26T07:44:00;97049.47;;;4.18;52.02
77077;BME280;66003;52.286;104.306;2023-02-26T07:46:26;97074.59;;;4.27;51.91
77077;BME280;66003;52.286;104.306;2023-02-26T07:48:53;97087.59;;;4.28;53.13
77077;BME280;66003;52.286;104.306;2023-02-26T07:51:19;97068.28;;;4.28;53.03
77077;BME280;66003;52.286;104.306;2023-02-26T07:53:45;97076.22;;;4.28;52.35
77077;BME280;66003;52.286;104.306;2023-02-26T07:56:12;97047.78;;;4.05;51.47
77077;BME280;66003;52.286;104.306;2023-02-26T07:58:38;96968.06;;;3.47;51.15
77077;BME280;66003;52.286;104.306;2023-02-26T08:01:04;97081.00;;;4.19;52.47
77077;BME280;66003;52.286;104.306;2023-02-26T08:03:31;97066.44;;;4.10;51.70
77077;BME280;66003;52.286;104.306;2023-02-26T08:05:58;97067.03;;;3.94;51.56
77077;BME280;66003;52.286;104.306;2023-02-26T08:08:27;97087.81;;;4.09;52.97
77077;BME280;66003;52.286;104.306;2023-02-26T08:10:54;97058.28;;;3.93;52.70
77077;BME280;66003;52.286;104.306;2023-02-26T08:13:20;97082.44;;;3.97;53.18
77077;BME280;66003;52.286;104.306;2023-02-26T08:15:47;97103.91;;;4.07;52.25
77077;BME280;66003;52.286;104.306;2023-02-26T08:18:13;97083.81;;;3.81;53.07
77077;BME280;66003;52.286;104.306;2023-02-26T08:20:39;97124.69;;;4.04;53.08
77077;BME280;66003;52.286;104.306;2023-02-26T08:23:06;97083.59;;;3.83;52.13
77077;BME280;66003;52.286;104.306;2023-02-26T08:25:33;97064.78;;;3.73;52.74
77077;BME280;66003;52.286;104.306;2023-02-26T08:27:59;97129.53;;;4.07;52.79
77077;BME280;66003;52.286;104.306;2023-02-26T08:30:26;97113.97;;;3.98;53.86
77077;BME280;66003;52.286;104.306;2023-02-26T08:32:53;97149.38;;;4.16;52.52
77077;BME280;66003;52.286;104.306;2023-02-26T08:35:19;97135.22;;;4.10;53.68
77077;BME280;66003;52.286;104.306;2023-02-26T08:37:46;97125.78;;;3.96;52.41
77077;BME280;66003;52.286;104.306;2023-02-26T08:40:13;97139.31;;;4.06;53.59
77077;BME280;66003;52.286;104.306;2023-02-26T08:42:39;97154.81;;;4.03;53.69
77077;BME280;66003;52.286;104.306;2023-02-26T08:45:06;97133.44;;;3.79;53.24
77077;BME280;66003;52.286;104.306;2023-02-26T08:47:33;97180.59;;;4.07;52.92
77077;BME280;66003;52.286;104.306;2023-02-26T08:49:59;97152.53;;;3.81;54.11
77077;BME280;66003;52.286;104.306;2023-02-26T08:52:25;97180.28;;;3.97;54.50
77077;BME280;66003;52.286;104.306;2023-02-26T08:54:52;97158.81;;;3.87;54.35
77077;BME280;66003;52.286;104.306;2023-02-26T08:57:18;97183.56;;;3.92;54.34
77077;BME280;66003;52.286;104.306;2023-02-26T08:59:45;97153.47;;;3.69;54.20
77077;BME280;66003;52.286;104.306;2023-02-26T09:02:12;97178.72;;;3.89;53.56
77077;BME280;66003;52.286;104.306;2023-02-26T09:04:38;97188.44;;;3.95;52.16
77077;BME280;66003;52.286;104.306;2023-02-26T09:07:05;97191.56;;;3.86;54.21
77077;BME280;66003;52.286;104.306;2023-02-26T09:09:31;97176.88;;;3.65;54.24
77077;BME280;66003;52.286;104.306;2023-02-26T09:11:58;97202.53;;;3.58;56.79
77077;BME280;66003;52.286;104.306;2023-02-26T09:14:24;97207.09;;;3.76;54.57
77077;BME280;66003;52.286;104.306;2023-02-26T09:16:51;97213.19;;;3.76;56.43
77077;BME280;66003;52.286;104.306;2023-02-26T09:19:17;97189.84;;;3.67;54.79
77077;BME280;66003;52.286;104.306;2023-02-26T09:21:44;97203.88;;;3.67;54.66
77077;BME280;66003;52.286;104.306;2023-02-26T09:24:10;97182.50;;;3.44;54.99
77077;BME280;66003;52.286;104.306;2023-02-26T09:26:37;97231.38;;;3.59;54.91
77077;BME280;66003;52.286;104.306;2023-02-26T09:29:03;97201.44;;;3.34;55.69
77077;BME280;66003;52.286;104.306;2023-02-26T09:31:30;97234.28;;;3.51;55.58
77077;BME280;66003;52.286;104.306;2023-02-26T09:33:57;97238.16;;;3.49;56.12
77077;BME280;66003;52.286;104.306;2023-02-26T09:36:23;97244.59;;;3.59;55.81
77077;BME280;66003;52.286;104.306;2023-02-26T09:38:50;97202.09;;;3.30;55.47
77077;BME280;66003;52.286;104.306;2023-02-26T09:41:22;97222.19;;;3.31;55.50
77077;BME280;66003;52.286;104.306;2023-02-26T09:46:31;97249.75;;;3.48;54.99
77077;BME280;66003;52.286;104.306;2023-02-26T09:51:33;97248.44;;;3.25;54.83
77077;BME280;66003;52.286;104.306;2023-02-26T09:54:22;97217.66;;;3.06;56.00
77077;BME280;66003;52.286;104.306;2023-02-26T09:56:51;97284.31;;;3.46;54.41
77077;BME280;66003;52.286;104.306;2023-02-26T09:59:19;97277.41;;;3.45;53.71
77077;BME280;66003;52.286;104.306;2023-02-26T10:01:55;97248.22;;;3.27;54.90
77077;BME280;66003;52.286;104.306;2023-02-26T10:04:59;97292.03;;;3.48;53.84
77077;BME280;66003;52.286;104.306;2023-02-26T10:12:35;97284.81;;;3.23;54.81
77077;BME280;66003;52.286;104.306;2023-02-26T10:15:26;97323.59;;;3.30;55.05
77077;BME280;66003;52.286;104.306;2023-02-26T10:20:42;97327.47;;;3.20;56.54
77077;BME280;66003;52.286;104.306;2023-02-26T10:23:24;97331.56;;;3.16;55.53
77077;BME280;66003;52.286;104.306;2023-02-26T10:25:57;97337.63;;;3.23;55.16
77077;BME280;66003;52.286;104.306;2023-02-26T10:28:42;97336.63;;;3.24;55.02
77077;BME280;66003;52.286;104.306;2023-02-26T10:36:28;97348.44;;;3.02;56.84
77077;BME280;66003;52.286;104.306;2023-02-26T10:41:45;97362.47;;;3.03;56.09
77077;BME280;66003;52.286;104.306;2023-02-26T10:44:16;97370.19;;;3.04;55.68
77077;BME280;66003;52.286;104.306;2023-02-26T10:47:02;97376.28;;;3.05;56.13
77077;BME280;66003;52.286;104.306;2023-02-26T10:52:20;97361.47;;;2.90;55.73
77077;BME280;66003;52.286;104.306;2023-02-26T11:00:30;97378.13;;;2.78;56.14
77077;BME280;66003;52.286;104.306;2023-02-26T11:03:02;97405.53;;;2.90;55.62
77077;BME280;66003;52.286;104.306;2023-02-26T11:05:31;97383.00;;;2.68;56.60
77077;BME280;66003;52.286;104.306;2023-02-26T11:08:44;97424.63;;;2.92;56.37
77077;BME280;66003;52.286;104.306;2023-02-26T11:10:56;97427.25;;;2.85;55.96
77077;BME280;66003;52.286;104.306;2023-02-26T11:13:26;97427.06;;;2.80;56.22
77077;BME280;66003;52.286;104.306;2023-02-26T11:15:56;97440.66;;;2.84;55.78
77077;BME280;66003;52.286;104.306;2023-02-26T11:18:30;97417.50;;;2.66;55.92
77077;BME280;66003;52.286;104.306;2023-02-26T11:20:59;97437.41;;;2.75;56.15
77077;BME280;66003;52.286;104.306;2023-02-26T11:23:29;97399.22;;;2.51;56.73
77077;BME280;66003;52.286;104.306;2023-02-26T11:26:03;97413.44;;;2.57;56.28
77077;BME280;66003;52.286;104.306;2023-02-26T11:28:49;97439.84;;;2.77;56.26
77077;BME280;66003;52.286;104.306;2023-02-26T11:31:20;97454.88;;;2.76;56.65
77077;BME280;66003;52.286;104.306;2023-02-26T11:34:07;97432.31;;;2.61;57.16
77077;BME280;66003;52.286;104.306;2023-02-26T11:36:41;97457.69;;;2.75;57.36
77077;BME280;66003;52.286;104.306;2023-02-26T11:39:19;97447.75;;;2.77;57.00
77077;BME280;66003;52.286;104.306;2023-02-26T11:41:48;97466.44;;;2.82;56.23
77077;BME280;66003;52.286;104.306;2023-02-26T11:44:34;97467.25;;;2.76;56.38
77077;BME280;66003;52.286;104.306;2023-02-26T11:47:14;97427.63;;;2.43;56.61
77077;BME280;66003;52.286;104.306;2023-02-26T11:49:50;97475.38;;;2.68;56.79
77077;BME280;66003;52.286;104.306;2023-02-26T11:52:29;97464.78;;;2.61;56.32
77077;BME280;66003;52.286;104.306;2023-02-26T11:55:20;97491.19;;;2.74;56.39
77077;BME280;66003;52.286;104.306;2023-02-26T11:57:52;97488.75;;;2.66;56.64
77077;BME280;66003;52.286;104.306;2023-02-26T12:00:29;97485.69;;;2.63;56.50
77077;BME280;66003;52.286;104.306;2023-02-26T12:03:14;97494.81;;;2.53;57.38
77077;BME280;66003;52.286;104.306;2023-02-26T12:05:45;97498.06;;;2.62;57.64
77077;BME280;66003;52.286;104.306;2023-02-26T12:08:38;97502.38;;;2.70;57.18
77077;BME280;66003;52.286;104.306;2023-02-26T12:11:25;97506.03;;;2.69;56.97
77077;BME280;66003;52.286;104.306;2023-02-26T12:14:12;97478.38;;;2.45;57.22
77077;BME280;66003;52.286;104.306;2023-02-26T12:17:01;97514.13;;;2.67;57.82
77077;BME280;66003;52.286;104.306;2023-02-26T12:19:54;97523.88;;;2.67;56.97
77077;BME280;66003;52.286;104.306;2023-02-26T12:39:04;97539.63;;;2.40;56.53
77077;BME280;66003;52.286;104.306;2023-02-26T13:01:33;97600.28;;;2.34;56.51
77077;BME280;66003;52.286;104.306;2023-02-26T13:10:11;97558.28;;;1.98;55.82
77077;BME280;66003;52.286;104.306;2023-02-26T13:18:17;97618.53;;;2.01;55.95
77077;BME280;66003;52.286;104.306;2023-02-26T13:20:58;97630.03;;;1.93;55.57
77077;BME280;66003;52.286;104.306;2023-02-26T13:23:35;97596.59;;;1.66;55.95
77077;BME280;66003;52.286;104.306;2023-02-26T13:26:08;97640.34;;;1.88;56.07
77077;BME280;66003;52.286;104.306;2023-02-26T13:31:11;97625.56;;;1.66;56.61
77077;BME280;66003;52.286;104.306;2023-02-26T13:33:39;97650.91;;;1.67;56.28
77077;BME280;66003;52.286;104.306;2023-02-26T13:36:07;97649.72;;;1.69;56.44
77077;BME280;66003;52.286;104.306;2023-02-26T13:38:43;97642.88;;;1.75;56.59
77077;BME280;66003;52.286;104.306;2023-02-26T13:46:46;97639.47;;;1.53;55.99
77077;BME280;66003;52.286;104.306;2023-02-26T13:51:53;97673.56;;;1.61;56.06
77077;BME280;66003;52.286;104.306;2023-02-26T13:57:06;97676.03;;;1.63;56.15
77077;BME280;66003;52.286;104.306;2023-02-26T13:59:49;97638.03;;;1.29;55.39
77077;BME280;66003;52.286;104.306;2023-02-26T14:05:51;97694.56;;;1.55;56.29
77077;BME280;66003;52.286;104.306;2023-02-26T14:08:26;97650.06;;;1.38;56.04
77077;BME280;66003;52.286;104.306;2023-02-26T14:11:02;97686.06;;;1.53;56.00
77077;BME280;66003;52.286;104.306;2023-02-26T14:13:39;97671.38;;;1.43;56.31
77077;BME280;66003;52.286;104.306;2023-02-26T14:16:27;97718.09;;;1.56;56.43
77077;BME280;66003;52.286;104.306;2023-02-26T14:19:04;97720.09;;;1.54;56.36
77077;BME280;66003;52.286;104.306;2023-02-26T14:24:22;97735.81;;;1.62;56.58
77077;BME280;66003;52.286;104.306;2023-02-26T14:30:13;97736.03;;;1.67;56.46
77077;BME280;66003;52.286;104.306;2023-02-26T14:38:11;97706.91;;;1.33;56.35
77077;BME280;66003;52.286;104.306;2023-02-26T14:40:48;97747.19;;;1.48;56.81
77077;BME280;66003;52.286;104.306;2023-02-26T14:43:37;97749.03;;;1.48;56.47
77077;BME280;66003;52.286;104.306;2023-02-26T14:46:06;97751.50;;;1.34;55.94
77077;BME280;66003;52.286;104.306;2023-02-26T14:48:34;97695.06;;;0.86;55.15
77077;BME280;66003;52.286;104.306;2023-02-26T14:51:18;97761.59;;;1.31;55.68
77077;BME280;66003;52.286;104.306;2023-02-26T15:02:34;97782.47;;;1.32;54.04
77077;BME280;66003;52.286;104.306;2023-02-26T15:14:04;97746.22;;;0.84;53.90
77077;BME280;66003;52.286;104.306;2023-02-26T15:19:23;97795.94;;;1.08;54.20
77077;BME280;66003;52.286;104.306;2023-02-26T15:24:28;97770.66;;;0.78;54.57
77077;BME280;66003;52.286;104.306;2023-02-26T15:26:59;97812.47;;;1.02;53.78
77077;BME280;66003;52.286;104.306;2023-02-26T15:29:29;97816.63;;;1.11;54.44
77077;BME280;66003;52.286;104.306;2023-02-26T15:32:12;97737.47;;;0.47;54.16
77077;BME280;66003;52.286;104.306;2023-02-26T15:34:47;97819.72;;;1.00;54.50
77077;BME280;66003;52.286;104.306;2023-02-26T15:37:20;97823.72;;;0.96;52.95
77077;BME280;66003;52.286;104.306;2023-02-26T15:39:50;97791.22;;;0.74;53.59
77077;BME280;66003;52.286;104.306;2023-02-26T15:42:19;97825.91;;;0.92;53.75
77077;BME280;66003;52.286;104.306;2023-02-26T15:44:47;97834.44;;;0.94;53.95
77077;BME280;66003;52.286;104.306;2023-02-26T15:47:16;97835.63;;;0.92;54.82
77077;BME280;66003;52.286;104.306;2023-02-26T15:49:46;97843.59;;;0.98;53.61
77077;BME280;66003;52.286;104.306;2023-02-26T15:52:16;97847.50;;;1.02;53.25
77077;BME280;66003;52.286;104.306;2023-02-26T15:55:03;97820.09;;;0.67;53.20
77077;BME280;66003;52.286;104.306;2023-02-26T15:57:31;97844.16;;;0.94;52.83
77077;BME280;66003;52.286;104.306;2023-02-26T16:00:13;97858.38;;;0.70;52.56
77077;BME280;66003;52.286;104.306;2023-02-26T16:02:41;97814.97;;;0.51;52.50